sensor_id;sensor_type;location;lat;lon;timestamp;pressure;altitude;pressure_sealevel;temperature;humidity
65784;BME280;52532;53.358;-1.488;2022-07-15T00:02:24;101555.47;;;19.26;43.10
65784;BME280;52532;53.358;-1.488;2022-07-15T00:05:29;101552.30;;;18.91;43.62
65784;BME280;52532;53.358;-1.488;2022-07-15T00:08:32;101555.24;;;18.38;44.40
65784;BME280;52532;53.358;-1.488;2022-07-15T00:11:37;101547.73;;;17.13;46.88
65784;BME280;52532;53.358;-1.488;2022-07-15T00:14:40;101547.97;;;18.80;44.19
65784;BME280;52532;53.358;-1.488;2022-07-15T00:17:43;101541.77;;;20.79;41.59
65784;BME280;52532;53.358;-1.488;2022-07-15T00:20:46;101544.98;;;18.74;45.11
65784;BME280;52532;53.358;-1.488;2022-07-15T00:23:49;101538.72;;;18.64;44.48
65784;BME280;52532;53.358;-1.488;2022-07-15T00:26:51;101535.38;;;17.14;47.89
65784;BME280;52532;53.358;-1.488;2022-07-15T00:29:54;101534.70;;;19.31;45.04
65784;BME280;52532;53.358;-1.488;2022-07-15T00:32:57;101535.21;;;15.46;52.22
65784;BME280;52532;53.358;-1.488;2022-07-15T00:36:00;101535.34;;;18.68;46.35
65784;BME280;52532;53.358;-1.488;2022-07-15T00:39:04;101532.55;;;16.39;51.54
65784;BME280;52532;53.358;-1.488;2022-07-15T00:42:07;101527.73;;;16.20;51.66
65784;BME280;52532;53.358;-1.488;2022-07-15T00:45:10;101524.34;;;16.77;50.47
65784;BME280;52532;53.358;-1.488;2022-07-15T00:48:14;101528.49;;;17.79;48.25
65784;BME280;52532;53.358;-1.488;2022-07-15T00:51:17;101522.75;;;17.31;49.19
65784;BME280;52532;53.358;-1.488;2022-07-15T00:54:24;101519.61;;;17.25;50.10
65784;BME280;52532;53.358;-1.488;2022-07-15T00:57:28;101525.39;;;17.73;48.30
65784;BME280;52532;53.358;-1.488;2022-07-15T01:00:32;101519.63;;;17.13;52.08
65784;BME280;52532;53.358;-1.488;2022-07-15T01:03:35;101519.38;;;16.23;52.89
65784;BME280;52532;53.358;-1.488;2022-07-15T01:06:39;101513.23;;;14.83;57.87
65784;BME280;52532;53.358;-1.488;2022-07-15T01:09:42;101505.90;;;16.71;53.10
65784;BME280;52532;53.358;-1.488;2022-07-15T01:12:46;101500.45;;;17.25;51.44
65784;BME280;52532;53.358;-1.488;2022-07-15T01:15:49;101504.83;;;15.48;55.28
65784;BME280;52532;53.358;-1.488;2022-07-15T01:18:52;101503.77;;;15.85;54.83
65784;BME280;52532;53.358;-1.488;2022-07-15T01:21:55;101503.93;;;15.40;57.36
65784;BME280;52532;53.358;-1.488;2022-07-15T01:24:58;101502.54;;;15.70;55.72
65784;BME280;52532;53.358;-1.488;2022-07-15T01:28:01;101500.90;;;15.45;55.62
65784;BME280;52532;53.358;-1.488;2022-07-15T01:31:05;101502.48;;;18.21;49.60
65784;BME280;52532;53.358;-1.488;2022-07-15T01:34:08;101491.24;;;19.74;46.53
65784;BME280;52532;53.358;-1.488;2022-07-15T01:37:11;101497.66;;;19.81;46.24
65784;BME280;52532;53.358;-1.488;2022-07-15T01:40:14;101501.74;;;17.13;50.72
65784;BME280;52532;53.358;-1.488;2022-07-15T01:43:17;101498.95;;;15.77;53.07
65784;BME280;52532;53.358;-1.488;2022-07-15T01:46:20;101498.76;;;18.69;47.33
65784;BME280;52532;53.358;-1.488;2022-07-15T01:49:23;101496.26;;;19.62;45.53
65784;BME280;52532;53.358;-1.488;2022-07-15T01:52:28;101498.58;;;18.31;46.81
65784;BME280;52532;53.358;-1.488;2022-07-15T01:55:30;101496.88;;;18.33;47.34
65784;BME280;52532;53.358;-1.488;2022-07-15T01:58:33;101494.19;;;18.66;47.94
65784;BME280;52532;53.358;-1.488;2022-07-15T02:01:36;101482.84;;;19.94;46.06
65784;BME280;52532;53.358;-1.488;2022-07-15T02:04:39;101482.26;;;18.25;48.62
65784;BME280;52532;53.358;-1.488;2022-07-15T02:07:42;101482.55;;;18.90;47.64
65784;BME280;52532;53.358;-1.488;2022-07-15T02:10:45;101479.77;;;17.37;50.31
65784;BME280;52532;53.358;-1.488;2022-07-15T02:13:48;101476.93;;;20.24;46.20
65784;BME280;52532;53.358;-1.488;2022-07-15T02:16:51;101479.94;;;19.55;45.97
65784;BME280;52532;53.358;-1.488;2022-07-15T02:19:54;101483.78;;;18.36;48.82
65784;BME280;52532;53.358;-1.488;2022-07-15T02:22:57;101477.23;;;17.17;49.93
65784;BME280;52532;53.358;-1.488;2022-07-15T02:26:01;101471.43;;;15.88;52.70
65784;BME280;52532;53.358;-1.488;2022-07-15T02:29:04;101468.74;;;19.39;46.56
65784;BME280;52532;53.358;-1.488;2022-07-15T02:32:06;101465.39;;;19.15;46.49
65784;BME280;52532;53.358;-1.488;2022-07-15T02:35:09;101463.12;;;17.11;50.00
65784;BME280;52532;53.358;-1.488;2022-07-15T02:38:13;101465.84;;;18.63;48.15
65784;BME280;52532;53.358;-1.488;2022-07-15T02:41:16;101468.94;;;16.82;52.40
65784;BME280;52532;53.358;-1.488;2022-07-15T02:44:19;101468.83;;;17.34;51.88
65784;BME280;52532;53.358;-1.488;2022-07-15T02:47:22;101463.97;;;16.76;51.83
65784;BME280;52532;53.358;-1.488;2022-07-15T02:50:25;101460.42;;;16.09;53.39
65784;BME280;52532;53.358;-1.488;2022-07-15T02:53:28;101460.33;;;17.33;51.49
65784;BME280;52532;53.358;-1.488;2022-07-15T02:56:31;101459.96;;;18.46;47.44
65784;BME280;52532;53.358;-1.488;2022-07-15T02:59:34;101459.76;;;19.39;46.17
65784;BME280;52532;53.358;-1.488;2022-07-15T03:02:37;101455.39;;;20.27;44.13
65784;BME280;52532;53.358;-1.488;2022-07-15T03:05:40;101456.63;;;15.39;53.82
65784;BME280;52532;53.358;-1.488;2022-07-15T03:08:43;101460.61;;;15.76;53.14
65784;BME280;52532;53.358;-1.488;2022-07-15T03:11:46;101459.72;;;18.52;48.61
65784;BME280;52532;53.358;-1.488;2022-07-15T03:14:49;101464.11;;;20.51;45.36
65784;BME280;52532;53.358;-1.488;2022-07-15T03:17:52;101467.46;;;17.05;49.36
65784;BME280;52532;53.358;-1.488;2022-07-15T03:20:55;101464.04;;;15.85;53.73
65784;BME280;52532;53.358;-1.488;2022-07-15T03:23:58;101465.55;;;16.08;53.76
65784;BME280;52532;53.358;-1.488;2022-07-15T03:27:01;101465.68;;;17.18;50.66
65784;BME280;52532;53.358;-1.488;2022-07-15T03:30:05;101465.17;;;17.51;50.23
65784;BME280;52532;53.358;-1.488;2022-07-15T03:33:07;101463.27;;;18.24;48.04
65784;BME280;52532;53.358;-1.488;2022-07-15T03:36:10;101467.02;;;17.56;49.79
65784;BME280;52532;53.358;-1.488;2022-07-15T03:39:13;101461.06;;;18.88;46.90
65784;BME280;52532;53.358;-1.488;2022-07-15T03:42:16;101459.95;;;17.80;50.49
65784;BME280;52532;53.358;-1.488;2022-07-15T03:45:19;101462.94;;;17.54;50.70
65784;BME280;52532;53.358;-1.488;2022-07-15T03:48:22;101461.11;;;18.20;50.76
65784;BME280;52532;53.358;-1.488;2022-07-15T03:51:25;101449.57;;;16.55;54.19
65784;BME280;52532;53.358;-1.488;2022-07-15T03:54:32;101442.99;;;18.00;52.15
65784;BME280;52532;53.358;-1.488;2022-07-15T03:57:35;101441.34;;;16.56;53.45
65784;BME280;52532;53.358;-1.488;2022-07-15T04:00:38;101443.11;;;14.95;56.38
65784;BME280;52532;53.358;-1.488;2022-07-15T04:03:41;101444.63;;;13.87;59.17
65784;BME280;52532;53.358;-1.488;2022-07-15T04:06:44;101442.02;;;16.36;52.71
65784;BME280;52532;53.358;-1.488;2022-07-15T04:09:47;101440.38;;;18.15;49.68
65784;BME280;52532;53.358;-1.488;2022-07-15T04:12:50;101438.91;;;16.69;51.06
65784;BME280;52532;53.358;-1.488;2022-07-15T04:15:53;101446.92;;;15.74;53.01
65784;BME280;52532;53.358;-1.488;2022-07-15T04:18:56;101444.00;;;14.67;55.42
65784;BME280;52532;53.358;-1.488;2022-07-15T04:21:58;101438.80;;;19.61;46.56
65784;BME280;52532;53.358;-1.488;2022-07-15T04:25:01;101437.16;;;18.86;47.72
65784;BME280;52532;53.358;-1.488;2022-07-15T04:28:04;101439.32;;;18.10;47.98
65784;BME280;52532;53.358;-1.488;2022-07-15T04:31:07;101434.08;;;19.02;47.39
65784;BME280;52532;53.358;-1.488;2022-07-15T04:34:11;101425.14;;;19.17;47.05
65784;BME280;52532;53.358;-1.488;2022-07-15T04:37:14;101423.00;;;17.99;47.74
65784;BME280;52532;53.358;-1.488;2022-07-15T04:40:17;101420.29;;;19.55;45.10
65784;BME280;52532;53.358;-1.488;2022-07-15T04:43:20;101424.44;;;19.28;44.75
65784;BME280;52532;53.358;-1.488;2022-07-15T04:46:23;101416.80;;;18.65;46.49
65784;BME280;52532;53.358;-1.488;2022-07-15T04:49:26;101422.80;;;20.03;44.14
65784;BME280;52532;53.358;-1.488;2022-07-15T04:54:41;101423.98;;;19.94;43.94
65784;BME280;52532;53.358;-1.488;2022-07-15T04:57:44;101423.92;;;18.08;47.37
65784;BME280;52532;53.358;-1.488;2022-07-15T05:00:47;101419.25;;;19.71;45.10
65784;BME280;52532;53.358;-1.488;2022-07-15T05:03:50;101419.96;;;21.01;42.11
65784;BME280;52532;53.358;-1.488;2022-07-15T05:06:53;101422.40;;;21.83;40.56
65784;BME280;52532;53.358;-1.488;2022-07-15T05:09:56;101424.45;;;19.98;43.51
65784;BME280;52532;53.358;-1.488;2022-07-15T05:12:59;101419.25;;;20.52;42.80
65784;BME280;52532;53.358;-1.488;2022-07-15T05:16:02;101417.86;;;19.79;45.48
65784;BME280;52532;53.358;-1.488;2022-07-15T05:19:05;101421.64;;;17.53;48.76
65784;BME280;52532;53.358;-1.488;2022-07-15T05:22:08;101421.83;;;17.32;48.37
65784;BME280;52532;53.358;-1.488;2022-07-15T05:25:11;101418.24;;;19.03;45.64
65784;BME280;52532;53.358;-1.488;2022-07-15T05:28:14;101413.30;;;19.86;44.48
65784;BME280;52532;53.358;-1.488;2022-07-15T05:31:18;101413.65;;;21.18;41.88
65784;BME280;52532;53.358;-1.488;2022-07-15T05:34:21;101414.46;;;17.68;46.56
65784;BME280;52532;53.358;-1.488;2022-07-15T05:37:24;101409.22;;;18.02;46.92
65784;BME280;52532;53.358;-1.488;2022-07-15T05:40:27;101416.21;;;19.70;44.30
65784;BME280;52532;53.358;-1.488;2022-07-15T05:43:31;101419.11;;;19.02;45.64
65784;BME280;52532;53.358;-1.488;2022-07-15T05:46:47;101418.86;;;19.96;43.11
65784;BME280;52532;53.358;-1.488;2022-07-15T05:49:54;101412.42;;;20.73;43.43
65784;BME280;52532;53.358;-1.488;2022-07-15T05:52:57;101415.81;;;20.54;40.97
65784;BME280;52532;53.358;-1.488;2022-07-15T05:56:00;101419.00;;;19.60;44.65
65784;BME280;52532;53.358;-1.488;2022-07-15T05:59:03;101417.75;;;19.13;45.10
65784;BME280;52532;53.358;-1.488;2022-07-15T06:02:06;101415.86;;;21.56;41.47
65784;BME280;52532;53.358;-1.488;2022-07-15T06:05:09;101415.08;;;18.17;47.47
65784;BME280;52532;53.358;-1.488;2022-07-15T06:08:12;101417.61;;;19.68;43.90
65784;BME280;52532;53.358;-1.488;2022-07-15T06:11:15;101414.36;;;20.48;42.93
65784;BME280;52532;53.358;-1.488;2022-07-15T06:14:18;101424.31;;;17.66;46.35
65784;BME280;52532;53.358;-1.488;2022-07-15T06:17:21;101431.38;;;17.41;47.29
65784;BME280;52532;53.358;-1.488;2022-07-15T06:20:24;101435.60;;;17.13;48.71
65784;BME280;52532;53.358;-1.488;2022-07-15T06:23:27;101425.57;;;18.54;45.62
65784;BME280;52532;53.358;-1.488;2022-07-15T06:26:29;101431.50;;;18.65;44.67
65784;BME280;52532;53.358;-1.488;2022-07-15T06:29:32;101432.14;;;18.55;45.43
65784;BME280;52532;53.358;-1.488;2022-07-15T06:32:36;101430.69;;;18.71;44.82
65784;BME280;52532;53.358;-1.488;2022-07-15T06:35:38;101429.71;;;15.94;49.79
65784;BME280;52532;53.358;-1.488;2022-07-15T06:38:41;101428.63;;;15.75;50.34
65784;BME280;52532;53.358;-1.488;2022-07-15T06:41:44;101434.39;;;15.26;52.38
65784;BME280;52532;53.358;-1.488;2022-07-15T06:44:47;101436.40;;;16.33;49.45
65784;BME280;52532;53.358;-1.488;2022-07-15T06:47:50;101433.10;;;17.15;48.83
65784;BME280;52532;53.358;-1.488;2022-07-15T06:50:53;101432.62;;;17.17;47.75
65784;BME280;52532;53.358;-1.488;2022-07-15T06:53:56;101434.17;;;18.05;46.51
65784;BME280;52532;53.358;-1.488;2022-07-15T06:56:59;101435.70;;;18.06;46.03
65784;BME280;52532;53.358;-1.488;2022-07-15T07:00:04;101427.47;;;17.36;48.15
65784;BME280;52532;53.358;-1.488;2022-07-15T07:03:09;101419.67;;;19.07;44.07
65784;BME280;52532;53.358;-1.488;2022-07-15T07:06:11;101420.46;;;19.31;43.25
65784;BME280;52532;53.358;-1.488;2022-07-15T07:09:14;101415.69;;;19.63;42.06
65784;BME280;52532;53.358;-1.488;2022-07-15T07:12:18;101417.29;;;17.85;44.78
65784;BME280;52532;53.358;-1.488;2022-07-15T07:15:20;101419.15;;;18.24;45.58
65784;BME280;52532;53.358;-1.488;2022-07-15T07:18:26;101412.80;;;18.53;44.12
65784;BME280;52532;53.358;-1.488;2022-07-15T07:21:29;101415.26;;;18.72;43.95
65784;BME280;52532;53.358;-1.488;2022-07-15T07:24:32;101415.47;;;19.37;43.68
65784;BME280;52532;53.358;-1.488;2022-07-15T07:27:35;101414.60;;;17.65;46.49
65784;BME280;52532;53.358;-1.488;2022-07-15T07:30:38;101422.44;;;20.16;42.17
65784;BME280;52532;53.358;-1.488;2022-07-15T07:33:41;101417.61;;;17.90;45.48
65784;BME280;52532;53.358;-1.488;2022-07-15T07:36:44;101424.23;;;16.98;48.95
65784;BME280;52532;53.358;-1.488;2022-07-15T07:39:48;101419.35;;;18.86;45.25
65784;BME280;52532;53.358;-1.488;2022-07-15T07:42:50;101418.97;;;20.45;42.15
65784;BME280;52532;53.358;-1.488;2022-07-15T07:45:54;101416.16;;;20.62;42.14
65784;BME280;52532;53.358;-1.488;2022-07-15T07:48:57;101412.34;;;20.96;40.91
65784;BME280;52532;53.358;-1.488;2022-07-15T07:51:59;101404.40;;;17.48;47.30
65784;BME280;52532;53.358;-1.488;2022-07-15T07:55:02;101404.56;;;19.45;42.91
65784;BME280;52532;53.358;-1.488;2022-07-15T07:58:06;101399.57;;;20.44;42.62
65784;BME280;52532;53.358;-1.488;2022-07-15T08:01:10;101396.27;;;20.73;41.70
65784;BME280;52532;53.358;-1.488;2022-07-15T08:04:13;101399.05;;;19.29;45.72
65784;BME280;52532;53.358;-1.488;2022-07-15T08:07:16;101398.27;;;19.64;44.27
65784;BME280;52532;53.358;-1.488;2022-07-15T08:10:19;101396.23;;;20.84;42.91
65784;BME280;52532;53.358;-1.488;2022-07-15T08:13:26;101393.73;;;20.76;42.87
65784;BME280;52532;53.358;-1.488;2022-07-15T08:16:29;101396.16;;;20.14;43.72
65784;BME280;52532;53.358;-1.488;2022-07-15T08:19:38;101399.08;;;19.87;45.13
65784;BME280;52532;53.358;-1.488;2022-07-15T08:22:41;101392.02;;;20.32;43.97
65784;BME280;52532;53.358;-1.488;2022-07-15T08:25:43;101395.08;;;19.68;45.90
65784;BME280;52532;53.358;-1.488;2022-07-15T08:28:46;101391.44;;;19.07;49.23
65784;BME280;52532;53.358;-1.488;2022-07-15T08:31:50;101392.54;;;18.28;48.73
65784;BME280;52532;53.358;-1.488;2022-07-15T08:34:54;101391.66;;;20.02;46.97
65784;BME280;52532;53.358;-1.488;2022-07-15T08:37:58;101394.36;;;19.38;49.63
65784;BME280;52532;53.358;-1.488;2022-07-15T08:41:02;101384.34;;;18.50;50.46
65784;BME280;52532;53.358;-1.488;2022-07-15T08:44:05;101385.19;;;17.39;53.89
65784;BME280;52532;53.358;-1.488;2022-07-15T08:47:10;101381.29;;;19.47;47.50
65784;BME280;52532;53.358;-1.488;2022-07-15T08:50:15;101374.17;;;18.91;49.14
65784;BME280;52532;53.358;-1.488;2022-07-15T08:53:19;101377.23;;;19.03;49.18
65784;BME280;52532;53.358;-1.488;2022-07-15T08:56:23;101384.01;;;18.30;51.02
65784;BME280;52532;53.358;-1.488;2022-07-15T08:59:26;101376.28;;;19.07;48.12
65784;BME280;52532;53.358;-1.488;2022-07-15T09:02:29;101373.89;;;18.04;51.31
65784;BME280;52532;53.358;-1.488;2022-07-15T09:05:34;101368.76;;;18.44;49.82
65784;BME280;52532;53.358;-1.488;2022-07-15T09:08:38;101370.28;;;19.49;47.08
65784;BME280;52532;53.358;-1.488;2022-07-15T09:11:41;101373.98;;;19.83;46.90
65784;BME280;52532;53.358;-1.488;2022-07-15T09:14:44;101370.59;;;17.38;49.92
65784;BME280;52532;53.358;-1.488;2022-07-15T09:17:47;101365.27;;;18.96;49.23
65784;BME280;52532;53.358;-1.488;2022-07-15T09:20:51;101364.96;;;19.22;46.95
65784;BME280;52532;53.358;-1.488;2022-07-15T09:23:54;101367.30;;;17.91;49.30
65784;BME280;52532;53.358;-1.488;2022-07-15T09:26:57;101368.94;;;19.16;46.80
65784;BME280;52532;53.358;-1.488;2022-07-15T09:30:14;101364.97;;;17.90;49.59
65784;BME280;52532;53.358;-1.488;2022-07-15T09:35:28;101366.53;;;17.03;52.13
65784;BME280;52532;53.358;-1.488;2022-07-15T09:39:53;101360.89;;;18.70;49.70
65784;BME280;52532;53.358;-1.488;2022-07-15T09:43:02;101360.25;;;17.84;50.11
65784;BME280;52532;53.358;-1.488;2022-07-15T09:46:07;101360.04;;;18.15;50.94
65784;BME280;52532;53.358;-1.488;2022-07-15T09:49:12;101351.80;;;18.58;51.12
65784;BME280;52532;53.358;-1.488;2022-07-15T09:52:15;101346.51;;;17.91;50.76
65784;BME280;52532;53.358;-1.488;2022-07-15T09:55:18;101344.75;;;18.29;50.17
65784;BME280;52532;53.358;-1.488;2022-07-15T09:58:22;101347.21;;;19.34;48.77
65784;BME280;52532;53.358;-1.488;2022-07-15T10:01:25;101343.74;;;18.45;50.11
65784;BME280;52532;53.358;-1.488;2022-07-15T10:04:30;101338.88;;;17.43;53.01
65784;BME280;52532;53.358;-1.488;2022-07-15T10:07:33;101331.17;;;18.63;51.68
65784;BME280;52532;53.358;-1.488;2022-07-15T10:10:38;101322.20;;;18.64;51.57
65784;BME280;52532;53.358;-1.488;2022-07-15T10:13:54;101328.69;;;18.73;49.95
65784;BME280;52532;53.358;-1.488;2022-07-15T10:17:12;101331.82;;;18.37;49.97
65784;BME280;52532;53.358;-1.488;2022-07-15T10:20:38;101322.46;;;19.23;48.40
65784;BME280;52532;53.358;-1.488;2022-07-15T10:24:02;101320.51;;;19.11;48.42
65784;BME280;52532;53.358;-1.488;2022-07-15T10:27:25;101313.12;;;18.78;48.48
65784;BME280;52532;53.358;-1.488;2022-07-15T10:30:33;101323.29;;;19.86;46.95
65784;BME280;52532;53.358;-1.488;2022-07-15T10:33:37;101314.11;;;19.92;45.38
65784;BME280;52532;53.358;-1.488;2022-07-15T10:36:41;101316.94;;;19.30;47.36
65784;BME280;52532;53.358;-1.488;2022-07-15T10:39:57;101308.85;;;20.15;45.15
65784;BME280;52532;53.358;-1.488;2022-07-15T10:43:08;101311.77;;;18.39;50.05
65784;BME280;52532;53.358;-1.488;2022-07-15T10:46:22;101317.60;;;18.42;49.84
65784;BME280;52532;53.358;-1.488;2022-07-15T10:49:30;101330.15;;;19.41;47.59
65784;BME280;52532;53.358;-1.488;2022-07-15T10:52:35;101324.53;;;18.99;48.31
65784;BME280;52532;53.358;-1.488;2022-07-15T10:55:38;101327.38;;;17.99;50.84
65784;BME280;52532;53.358;-1.488;2022-07-15T10:59:07;101328.67;;;20.24;46.96
65784;BME280;52532;53.358;-1.488;2022-07-15T11:02:12;101339.04;;;21.85;44.84
65784;BME280;52532;53.358;-1.488;2022-07-15T11:05:19;101337.31;;;18.89;48.91
65784;BME280;52532;53.358;-1.488;2022-07-15T11:09:12;101338.54;;;19.61;48.33
65784;BME280;52532;53.358;-1.488;2022-07-15T11:13:04;101334.84;;;19.43;47.58
65784;BME280;52532;53.358;-1.488;2022-07-15T11:16:09;101332.70;;;19.31;49.17
65784;BME280;52532;53.358;-1.488;2022-07-15T11:19:14;101324.01;;;20.69;47.37
65784;BME280;52532;53.358;-1.488;2022-07-15T11:22:20;101324.79;;;18.77;50.69
65784;BME280;52532;53.358;-1.488;2022-07-15T11:25:25;101323.90;;;18.94;50.80
65784;BME280;52532;53.358;-1.488;2022-07-15T11:28:29;101326.85;;;18.96;49.69
65784;BME280;52532;53.358;-1.488;2022-07-15T11:31:39;101322.60;;;19.65;48.59
65784;BME280;52532;53.358;-1.488;2022-07-15T11:34:45;101313.77;;;20.35;46.69
65784;BME280;52532;53.358;-1.488;2022-07-15T11:37:48;101316.92;;;20.49;45.67
65784;BME280;52532;53.358;-1.488;2022-07-15T11:41:01;101311.16;;;20.57;46.86
65784;BME280;52532;53.358;-1.488;2022-07-15T11:46:15;101305.17;;;21.98;43.65
65784;BME280;52532;53.358;-1.488;2022-07-15T11:49:26;101301.47;;;21.17;44.37
65784;BME280;52532;53.358;-1.488;2022-07-15T11:52:29;101297.25;;;22.03;43.29
65784;BME280;52532;53.358;-1.488;2022-07-15T11:55:32;101290.66;;;19.56;47.58
65784;BME280;52532;53.358;-1.488;2022-07-15T11:58:37;101292.26;;;21.36;43.50
65784;BME280;52532;53.358;-1.488;2022-07-15T12:01:41;101293.11;;;21.23;42.38
65784;BME280;52532;53.358;-1.488;2022-07-15T12:04:44;101283.16;;;20.30;44.09
65784;BME280;52532;53.358;-1.488;2022-07-15T12:07:48;101278.45;;;20.35;44.50
65784;BME280;52532;53.358;-1.488;2022-07-15T12:10:51;101278.22;;;21.70;42.15
65784;BME280;52532;53.358;-1.488;2022-07-15T12:13:58;101293.95;;;21.31;43.43
65784;BME280;52532;53.358;-1.488;2022-07-15T12:17:03;101294.98;;;20.62;44.18
65784;BME280;52532;53.358;-1.488;2022-07-15T12:20:07;101289.95;;;20.09;45.81
65784;BME280;52532;53.358;-1.488;2022-07-15T12:23:11;101284.45;;;19.63;45.55
65784;BME280;52532;53.358;-1.488;2022-07-15T12:26:15;101284.30;;;21.49;42.57
65784;BME280;52532;53.358;-1.488;2022-07-15T12:29:20;101284.09;;;21.41;42.98
65784;BME280;52532;53.358;-1.488;2022-07-15T12:32:25;101272.20;;;22.60;39.80
65784;BME280;52532;53.358;-1.488;2022-07-15T12:35:28;101279.69;;;20.47;42.07
65784;BME280;52532;53.358;-1.488;2022-07-15T12:38:31;101286.13;;;20.37;42.33
65784;BME280;52532;53.358;-1.488;2022-07-15T12:41:35;101275.58;;;19.39;44.68
65784;BME280;52532;53.358;-1.488;2022-07-15T12:44:38;101274.06;;;20.05;43.37
65784;BME280;52532;53.358;-1.488;2022-07-15T12:47:59;101271.45;;;21.20;41.46
65784;BME280;52532;53.358;-1.488;2022-07-15T12:51:03;101283.81;;;21.33;40.72
65784;BME280;52532;53.358;-1.488;2022-07-15T12:54:07;101282.00;;;21.32;39.43
65784;BME280;52532;53.358;-1.488;2022-07-15T12:57:20;101274.31;;;19.83;41.94
65784;BME280;52532;53.358;-1.488;2022-07-15T13:00:23;101274.72;;;20.05;40.97
65784;BME280;52532;53.358;-1.488;2022-07-15T13:03:28;101283.85;;;20.31;41.08
65784;BME280;52532;53.358;-1.488;2022-07-15T13:06:31;101280.95;;;21.63;39.67
65784;BME280;52532;53.358;-1.488;2022-07-15T13:09:33;101289.96;;;21.19;40.46
65784;BME280;52532;53.358;-1.488;2022-07-15T13:12:38;101295.07;;;21.00;41.33
65784;BME280;52532;53.358;-1.488;2022-07-15T13:15:41;101298.79;;;20.91;40.63
65784;BME280;52532;53.358;-1.488;2022-07-15T13:18:44;101296.43;;;20.79;40.68
65784;BME280;52532;53.358;-1.488;2022-07-15T13:21:47;101305.50;;;19.57;44.58
65784;BME280;52532;53.358;-1.488;2022-07-15T13:24:51;101304.95;;;19.70;43.21
65784;BME280;52532;53.358;-1.488;2022-07-15T13:27:55;101307.89;;;21.29;41.84
65784;BME280;52532;53.358;-1.488;2022-07-15T13:30:58;101301.65;;;20.83;41.95
65784;BME280;52532;53.358;-1.488;2022-07-15T13:34:00;101297.35;;;20.26;42.40
65784;BME280;52532;53.358;-1.488;2022-07-15T13:37:03;101298.05;;;19.55;44.04
65784;BME280;52532;53.358;-1.488;2022-07-15T13:40:09;101298.86;;;20.95;42.35
65784;BME280;52532;53.358;-1.488;2022-07-15T13:43:13;101299.30;;;19.66;44.93
65784;BME280;52532;53.358;-1.488;2022-07-15T13:46:16;101303.58;;;21.05;42.69
65784;BME280;52532;53.358;-1.488;2022-07-15T13:49:19;101310.24;;;20.94;42.96
65784;BME280;52532;53.358;-1.488;2022-07-15T13:54:24;101305.64;;;20.75;43.73
65784;BME280;52532;53.358;-1.488;2022-07-15T13:57:27;101297.36;;;19.76;45.52
65784;BME280;52532;53.358;-1.488;2022-07-15T14:00:30;101287.01;;;21.03;42.76
65784;BME280;52532;53.358;-1.488;2022-07-15T14:03:36;101286.56;;;19.85;46.07
65784;BME280;52532;53.358;-1.488;2022-07-15T14:06:40;101300.15;;;20.34;44.21
65784;BME280;52532;53.358;-1.488;2022-07-15T14:09:44;101308.37;;;20.20;45.70
65784;BME280;52532;53.358;-1.488;2022-07-15T14:12:47;101314.46;;;19.62;47.18
65784;BME280;52532;53.358;-1.488;2022-07-15T14:15:50;101314.82;;;19.65;45.72
65784;BME280;52532;53.358;-1.488;2022-07-15T14:18:52;101311.39;;;20.03;44.63
65784;BME280;52532;53.358;-1.488;2022-07-15T14:21:55;101308.28;;;19.55;46.16
65784;BME280;52532;53.358;-1.488;2022-07-15T14:24:59;101310.72;;;19.42;45.89
65784;BME280;52532;53.358;-1.488;2022-07-15T14:28:02;101321.31;;;17.79;50.23
65784;BME280;52532;53.358;-1.488;2022-07-15T14:31:06;101313.51;;;18.59;48.08
65784;BME280;52532;53.358;-1.488;2022-07-15T14:34:10;101310.82;;;18.57;47.38
65784;BME280;52532;53.358;-1.488;2022-07-15T14:37:14;101313.35;;;20.46;44.78
65784;BME280;52532;53.358;-1.488;2022-07-15T14:40:17;101318.86;;;19.24;46.54
65784;BME280;52532;53.358;-1.488;2022-07-15T14:43:22;101319.87;;;18.30;49.30
65784;BME280;52532;53.358;-1.488;2022-07-15T14:46:25;101313.74;;;20.77;45.24
65784;BME280;52532;53.358;-1.488;2022-07-15T14:49:29;101319.15;;;19.67;46.52
65784;BME280;52532;53.358;-1.488;2022-07-15T14:52:33;101320.60;;;20.33;45.72
65784;BME280;52532;53.358;-1.488;2022-07-15T14:55:36;101329.11;;;20.09;45.41
65784;BME280;52532;53.358;-1.488;2022-07-15T14:58:39;101314.88;;;19.78;46.10
65784;BME280;52532;53.358;-1.488;2022-07-15T15:01:42;101311.94;;;19.79;45.80
65784;BME280;52532;53.358;-1.488;2022-07-15T15:04:45;101317.00;;;19.31;47.42
65784;BME280;52532;53.358;-1.488;2022-07-15T15:07:48;101314.28;;;19.37;46.10
65784;BME280;52532;53.358;-1.488;2022-07-15T15:10:51;101297.54;;;20.03;43.78
65784;BME280;52532;53.358;-1.488;2022-07-15T15:13:55;101297.03;;;20.03;43.79
65784;BME280;52532;53.358;-1.488;2022-07-15T15:16:58;101300.77;;;19.50;45.91
65784;BME280;52532;53.358;-1.488;2022-07-15T15:20:01;101314.55;;;19.91;44.47
65784;BME280;52532;53.358;-1.488;2022-07-15T15:23:09;101313.48;;;19.97;45.47
65784;BME280;52532;53.358;-1.488;2022-07-15T15:26:27;101321.06;;;19.63;47.74
65784;BME280;52532;53.358;-1.488;2022-07-15T15:29:40;101324.44;;;19.38;46.29
65784;BME280;52532;53.358;-1.488;2022-07-15T15:32:53;101328.36;;;19.41;46.31
65784;BME280;52532;53.358;-1.488;2022-07-15T15:35:58;101324.77;;;20.02;46.23
65784;BME280;52532;53.358;-1.488;2022-07-15T15:39:02;101329.92;;;18.81;48.87
65784;BME280;52532;53.358;-1.488;2022-07-15T15:42:05;101317.89;;;18.29;48.88
65784;BME280;52532;53.358;-1.488;2022-07-15T15:45:10;101317.56;;;17.85;49.89
65784;BME280;52532;53.358;-1.488;2022-07-15T15:48:13;101314.37;;;19.19;47.70
65784;BME280;52532;53.358;-1.488;2022-07-15T15:51:16;101313.47;;;18.77;47.84
65784;BME280;52532;53.358;-1.488;2022-07-15T15:54:20;101317.80;;;18.12;51.07
65784;BME280;52532;53.358;-1.488;2022-07-15T15:57:24;101305.65;;;17.64;52.53
65784;BME280;52532;53.358;-1.488;2022-07-15T16:00:32;101314.27;;;18.12;51.31
65784;BME280;52532;53.358;-1.488;2022-07-15T16:03:37;101303.24;;;19.86;48.43